Time;durP1;ratioP1;P1;durP2;ratioP2;P2;SDS_P1;SDS_P2;PMS_P1;PMS_P2;Temp;Humidity;BMP_temperature;BMP_pressure;BME280_temperature;BME280_humidity;BME280_pressure;Samples;Min_cycle;Max_cycle;Signal;HPM_P1;HPM_P2
2022/01/15 00:01:51;;;;;;;3.53;2.75;;;;;;;4.79;86.71;62490.91;4989454;28;20216;-77
2022/01/15 00:04:18;;;;;;;3.40;2.30;;;;;;;4.80;87.19;62489.91;4988415;28;20471;-78
2022/01/15 00:06:45;;;;;;;2.85;2.33;;;;;;;4.74;88.41;62481.22;4990976;28;20262;-77
2022/01/15 00:09:12;;;;;;;2.75;2.30;;;;;;;4.76;89.16;62490.34;4987996;28;20204;-77
2022/01/15 00:11:38;;;;;;;3.00;2.70;;;;;;;4.67;89.49;62476.56;4990601;28;20381;-77
2022/01/15 00:14:14;;;;;;;3.13;2.60;;;;;;;4.62;90.74;62474.44;4985980;28;20378;-77
2022/01/15 00:16:49;;;;;;;2.72;2.53;;;;;;;4.59;91.78;62468.31;4987112;28;20268;-76
2022/01/15 00:19:21;;;;;;;3.33;2.72;;;;;;;4.54;92.29;62465.69;4985795;28;20208;-77
2022/01/15 00:21:47;;;;;;;2.63;2.42;;;;;;;4.46;93.16;62452.94;4987472;28;20222;-77
2022/01/15 00:24:15;;;;;;;2.90;2.15;;;;;;;4.54;93.68;62468.19;4987664;28;20239;-76
2022/01/15 00:26:42;;;;;;;3.47;2.53;;;;;;;4.51;93.81;62463.13;4986939;28;20266;-77
2022/01/15 00:29:08;;;;;;;2.53;2.40;;;;;;;4.50;93.87;62459.06;4986204;28;20219;-77
2022/01/15 00:31:35;;;;;;;2.85;2.38;;;;;;;4.52;93.63;62464.13;4982735;28;20306;-77
2022/01/15 00:34:02;;;;;;;3.58;2.45;;;;;;;4.55;93.62;62464.19;4968293;28;20201;-77
2022/01/15 00:36:30;;;;;;;4.20;2.97;;;;;;;4.53;93.51;62467.19;4972375;28;20586;-77
2022/01/15 00:38:57;;;;;;;2.88;2.67;;;;;;;4.53;94.00;62462.66;4986904;28;20380;-76
2022/01/15 00:41:25;;;;;;;3.05;2.35;;;;;;;4.48;94.49;62457.00;4985374;28;20220;-76
2022/01/15 00:43:52;;;;;;;2.55;2.33;;;;;;;4.56;94.51;62467.75;4987000;28;20199;-78
2022/01/15 00:46:18;;;;;;;3.40;2.45;;;;;;;4.56;94.26;62467.75;4986660;28;20238;-77
2022/01/15 00:48:45;;;;;;;2.15;1.95;;;;;;;4.60;93.90;62474.91;4985981;28;20368;-78
2022/01/15 00:51:12;;;;;;;2.75;2.40;;;;;;;4.71;92.46;62483.69;4986034;28;20258;-78
2022/01/15 00:53:41;;;;;;;3.42;2.47;;;;;;;4.71;92.75;62480.66;4987159;28;20207;-76
2022/01/15 00:56:07;;;;;;;3.13;2.83;;;;;;;4.69;92.80;62479.13;4979480;28;20253;-76
2022/01/15 00:58:34;;;;;;;2.75;2.55;;;;;;;4.72;92.71;62486.75;4977225;28;20438;-77
2022/01/15 01:01:01;;;;;;;2.80;2.67;;;;;;;4.68;92.94;62475.03;4986718;28;20555;-77
2022/01/15 01:03:28;;;;;;;3.85;2.10;;;;;;;4.71;93.15;62486.22;4986499;28;20210;-77
2022/01/15 01:05:55;;;;;;;2.33;2.08;;;;;;;4.69;92.99;62479.13;4985137;28;20331;-79
2022/01/15 01:08:22;;;;;;;3.22;2.92;;;;;;;4.85;91.96;62495.06;4986684;28;20516;-76
2022/01/15 01:10:54;;;;;;;4.32;2.70;;;;;;;4.84;92.07;62499.09;4985544;28;20475;-76
2022/01/15 01:13:42;;;;;;;2.28;2.15;;;;;;;4.81;92.60;62493.47;4984641;28;20509;-77
2022/01/15 01:24:26;;;;;;;3.05;2.75;;;;;;;4.76;92.76;62488.34;4985550;28;20215;-77
2022/01/15 01:26:58;;;;;;;3.13;2.83;;;;;;;4.71;92.94;62483.69;4986401;28;20267;-76
2022/01/15 01:29:37;;;;;;;3.08;2.65;;;;;;;4.67;92.91;62477.06;4985360;28;20188;-76
2022/01/15 01:32:09;;;;;;;3.45;2.38;;;;;;;4.65;93.30;62474.50;4984152;28;20232;-77
2022/01/15 01:34:39;;;;;;;2.83;2.53;;;;;;;4.67;92.86;62474.53;4984642;28;20196;-76
2022/01/15 01:37:12;;;;;;;3.10;2.78;;;;;;;4.61;93.18;62470.38;4985351;28;20236;-76
2022/01/15 01:39:44;;;;;;;2.50;2.28;;;;;;;4.56;93.70;62467.75;4985586;28;20227;-77
2022/01/15 01:42:33;;;;;;;2.55;2.13;;;;;;;4.53;94.04;62465.19;4984839;28;20242;-78
2022/01/15 01:45:04;;;;;;;2.60;2.33;;;;;;;4.57;93.94;62471.31;4984009;28;20568;-76
2022/01/15 01:47:39;;;;;;;2.67;2.58;;;;;;;4.49;94.03;62458.53;4984626;28;20200;-76
2022/01/15 01:50:09;;;;;;;2.70;2.45;;;;;;;4.59;93.68;62468.81;4984592;28;20231;-76
2022/01/15 01:52:36;;;;;;;2.75;2.55;;;;;;;4.59;94.23;62465.81;4985523;28;20255;-76
2022/01/15 01:55:04;;;;;;;2.65;2.45;;;;;;;4.58;93.79;62467.28;4984967;28;20250;-77
2022/01/15 01:57:33;;;;;;;2.83;2.63;;;;;;;4.74;93.58;62483.75;4985818;28;20200;-76
2022/01/15 02:00:00;;;;;;;5.25;2.60;;;;;;;4.77;92.50;62486.84;4986590;28;20227;-76
2022/01/15 02:02:27;;;;;;;4.55;3.33;;;;;;;4.81;91.81;62493.47;4989085;28;20433;-77
2022/01/15 02:04:58;;;;;;;3.53;3.10;;;;;;;4.79;91.34;62491.44;4990381;28;20240;-77
2022/01/15 02:07:26;;;;;;;2.97;2.75;;;;;;;4.78;90.20;62492.41;4987934;28;20192;-76
2022/01/15 02:09:53;;;;;;;3.20;2.90;;;;;;;4.88;90.50;62503.22;4991868;28;20199;-77
2022/01/15 02:12:20;;;;;;;3.65;3.28;;;;;;;4.94;89.89;62509.38;4989505;28;20283;-77
2022/01/15 02:14:48;;;;;;;5.82;3.13;;;;;;;4.92;89.15;62504.28;4989680;28;20232;-77
2022/01/15 02:17:18;;;;;;;6.20;3.50;;;;;;;4.96;88.68;62510.94;4984864;28;20235;-77
2022/01/15 02:20:08;;;;;;;3.85;2.88;;;;;;;4.92;89.31;62502.28;4985774;28;20238;-76
2022/01/15 02:25:27;;;;;;;2.75;2.55;;;;;;;5.00;88.71;62510.00;4956529;28;20230;-76
2022/01/15 02:27:54;;;;;;;3.28;3.03;;;;;;;4.97;88.95;62506.91;4984961;28;20420;-77
2022/01/15 02:30:20;;;;;;;4.10;2.70;;;;;;;4.90;90.04;62499.72;4984206;28;20232;-76
2022/01/15 02:32:47;;;;;;;4.05;2.88;;;;;;;4.86;89.81;62496.09;4984097;28;20203;-77
2022/01/15 02:35:15;;;;;;;2.20;2.10;;;;;;;4.92;88.95;62506.81;4985224;28;20200;-76
2022/01/15 02:37:42;;;;;;;2.92;2.72;;;;;;;4.84;88.57;62496.56;4986618;28;20239;-77
2022/01/15 02:40:12;;;;;;;4.22;3.42;;;;;;;4.76;88.46;62485.81;4986461;28;20203;-76
2022/01/15 02:42:39;;;;;;;3.25;2.88;;;;;;;4.71;88.41;62481.16;4975757;28;20235;-77
2022/01/15 02:45:08;;;;;;;4.03;3.22;;;;;;;4.70;88.47;62480.16;4979675;28;20224;-77
2022/01/15 02:50:22;;;;;;;3.20;2.67;;;;;;;4.58;88.87;62467.81;4984087;28;20274;-76
2022/01/15 02:52:49;;;;;;;4.28;3.65;;;;;;;4.55;89.32;62461.69;4985493;28;20204;-77
2022/01/15 02:55:16;;;;;;;4.40;3.10;;;;;;;4.51;89.47;62460.59;4984617;28;20230;-77
2022/01/15 02:57:42;;;;;;;5.40;3.88;;;;;;;4.42;89.56;62456.38;4985156;28;20259;-76
2022/01/15 03:00:11;;;;;;;3.30;2.78;;;;;;;4.45;89.32;62459.44;4983918;28;20247;-77
2022/01/15 03:02:38;;;;;;;4.32;3.15;;;;;;;4.47;89.13;62458.47;4983490;28;20223;-77
2022/01/15 03:05:05;;;;;;;3.13;2.92;;;;;;;4.45;89.36;62456.44;4983704;28;20270;-76
2022/01/15 03:07:34;;;;;;;3.13;2.90;;;;;;;4.46;89.08;62455.44;4984743;28;20200;-75
2022/01/15 03:10:01;;;;;;;5.93;3.65;;;;;;;4.46;88.23;62455.44;4983434;28;20211;-76
2022/01/15 03:12:28;;;;;;;3.30;3.05;;;;;;;4.41;88.16;62454.81;4983076;28;20242;-77
2022/01/15 03:15:00;;;;;;;4.43;3.40;;;;;;;4.36;87.77;62450.22;4983486;28;20592;-76
2022/01/15 03:17:27;;;;;;;3.80;3.30;;;;;;;4.28;86.85;62436.91;4985042;28;20195;-77
2022/01/15 03:19:53;;;;;;;6.85;3.00;;;;;;;4.20;86.09;62433.22;4982657;28;20240;-77
2022/01/15 03:22:21;;;;;;;5.15;4.15;;;;;;;4.12;86.39;62420.47;4982711;28;20284;-77
2022/01/15 03:24:49;;;;;;;3.95;3.58;;;;;;;4.09;85.82;62417.38;4972986;28;20201;-76
2022/01/15 03:27:16;;;;;;;4.85;4.35;;;;;;;4.03;86.14;62413.22;4965022;29;20233;-76
2022/01/15 03:29:43;;;;;;;9.10;4.45;;;;;;;4.01;86.50;62408.63;4983362;28;20239;-77
2022/01/15 03:32:10;;;;;;;5.07;3.85;;;;;;;3.99;87.47;62406.56;4980663;28;20247;-76
2022/01/15 03:34:37;;;;;;;4.90;3.65;;;;;;;3.95;87.67;62404.97;4981579;28;20207;-78
2022/01/15 03:37:04;;;;;;;4.32;3.72;;;;;;;3.88;88.53;62400.81;4984406;28;20219;-77
2022/01/15 03:39:31;;;;;;;5.40;3.67;;;;;;;3.92;88.84;62399.38;4982958;28;20204;-77
2022/01/15 03:41:59;;;;;;;5.15;4.07;;;;;;;4.01;89.43;62409.16;4983540;28;20224;-77
2022/01/15 03:44:26;;;;;;;5.05;3.35;;;;;;;4.03;90.20;62411.22;4982800;28;20202;-78
2022/01/15 03:46:53;;;;;;;4.00;3.65;;;;;;;4.03;90.86;62415.72;4983691;28;20643;-77
2022/01/15 03:49:20;;;;;;;3.55;3.25;;;;;;;4.08;91.27;62421.38;4973430;28;20259;-76
2022/01/15 03:51:47;;;;;;;5.72;3.63;;;;;;;4.11;91.57;62424.47;4978687;28;20242;-77
2022/01/15 03:54:14;;;;;;;3.75;3.28;;;;;;;4.12;91.60;62423.00;4986978;28;20239;-77
2022/01/15 03:56:40;;;;;;;5.22;3.25;;;;;;;4.17;92.87;62425.09;4986762;28;20228;-77
2022/01/15 03:59:09;;;;;;;5.22;4.03;;;;;;;4.17;93.46;62430.66;4987055;28;20508;-76
2022/01/15 04:01:36;;;;;;;4.18;3.72;;;;;;;4.17;93.22;62425.09;4987189;28;20552;-77
2022/01/15 04:04:03;;;;;;;4.60;3.05;;;;;;;4.11;93.31;62416.38;4984386;28;20200;-77
2022/01/15 04:06:30;;;;;;;3.40;3.10;;;;;;;4.00;93.99;62407.59;4987522;28;20216;-78
2022/01/15 04:08:56;;;;;;;3.90;3.55;;;;;;;3.99;94.52;62406.56;4987766;28;20200;-78
2022/01/15 04:11:23;;;;;;;4.90;3.58;;;;;;;3.92;95.17;62401.91;4987855;28;20235;-77
2022/01/15 04:13:50;;;;;;;3.53;3.22;;;;;;;3.83;95.08;62390.63;4984960;28;20251;-77
2022/01/15 04:16:18;;;;;;;4.80;4.05;;;;;;;3.76;95.80;62385.44;4987073;28;20234;-77
2022/01/15 04:18:45;;;;;;;4.57;4.05;;;;;;;3.73;95.62;62382.34;4986982;28;20441;-78
2022/01/15 04:21:14;;;;;;;5.07;4.57;;;;;;;3.60;96.28;62369.50;4987212;28;20223;-77
2022/01/15 04:23:40;;;;;;;3.97;3.60;;;;;;;3.58;96.55;62364.91;4981734;28;20464;-76
2022/01/15 04:26:08;;;;;;;11.02;3.58;;;;;;;3.53;96.65;62359.78;4982797;28;20231;-78
2022/01/15 04:28:35;;;;;;;5.22;3.90;;;;;;;3.52;97.29;62358.75;4986757;28;20251;-78
2022/01/15 04:31:06;;;;;;;6.60;4.22;;;;;;;3.50;97.01;62359.72;4985560;28;20232;-78
2022/01/15 04:33:36;;;;;;;3.92;3.45;;;;;;;3.43;97.44;62352.53;4987705;28;20215;-77
2022/01/15 04:36:04;;;;;;;8.63;4.22;;;;;;;3.37;97.45;62343.31;4985972;28;20444;-77
2022/01/15 04:38:34;;;;;;;8.02;5.05;;;;;;;3.27;98.55;62335.56;4986851;28;20263;-77
2022/01/15 04:41:01;;;;;;;9.18;5.05;;;;;;;3.23;99.21;62331.44;4986009;28;20282;-76
2022/01/15 04:43:29;;;;;;;5.43;4.53;;;;;;;3.19;99.47;62324.84;4987124;28;20222;-77
2022/01/15 04:45:55;;;;;;;5.57;4.20;;;;;;;3.12;100.00;62317.63;4986213;28;20544;-77
2022/01/15 04:48:23;;;;;;;6.63;4.65;;;;;;;3.17;100.00;62325.28;4995955;28;20196;-77
2022/01/15 04:50:51;;;;;;;9.30;5.00;;;;;;;3.12;100.00;62320.16;4989336;28;20287;-78
2022/01/15 04:53:18;;;;;;;6.53;4.47;;;;;;;3.11;100.00;62319.63;4991944;28;20196;-77
2022/01/15 04:55:45;;;;;;;5.60;4.22;;;;;;;3.17;100.00;62322.78;4987336;28;20310;-77
2022/01/15 04:58:12;;;;;;;7.43;4.63;;;;;;;3.11;100.00;62319.09;4986251;28;20271;-76
2022/01/15 05:00:39;;;;;;;6.55;5.07;;;;;;;3.21;100.00;62326.88;4987394;28;20231;-76
2022/01/15 05:03:05;;;;;;;4.55;4.10;;;;;;;3.16;100.00;62322.25;4987220;28;20436;-76
2022/01/15 05:05:32;;;;;;;7.38;4.72;;;;;;;3.16;100.00;62321.72;4989007;28;20219;-77
2022/01/15 05:08:02;;;;;;;5.50;4.95;;;;;;;3.15;100.00;62325.75;4985276;28;20242;-76
2022/01/15 05:10:29;;;;;;;8.23;4.28;;;;;;;3.09;100.00;62319.59;4986592;28;20220;-77
2022/01/15 05:12:59;;;;;;;5.85;4.38;;;;;;;3.07;100.00;62309.97;4993272;28;20266;-75
2022/01/15 05:15:25;;;;;;;7.47;4.68;;;;;;;3.05;100.00;62312.94;4993902;28;20381;-76
2022/01/15 05:17:52;;;;;;;7.97;4.65;;;;;;;3.02;100.00;62304.84;4988130;28;20204;-77
2022/01/15 05:20:22;;;;;;;6.53;4.85;;;;;;;2.97;100.00;62307.25;4989591;28;20220;-77
2022/01/15 05:22:50;;;;;;;6.40;5.20;;;;;;;2.89;100.00;62296.50;4986310;28;20485;-77
2022/01/15 05:25:18;;;;;;;8.18;5.45;;;;;;;2.92;100.00;62299.59;4977407;28;20295;-78
2022/01/15 05:27:47;;;;;;;6.57;4.95;;;;;;;2.89;100.00;62292.00;4986077;28;20204;-77
2022/01/15 05:30:15;;;;;;;6.72;4.70;;;;;;;2.89;100.00;62294.00;4987644;28;20600;-77
2022/01/15 05:32:42;;;;;;;8.02;5.18;;;;;;;2.92;100.00;62297.59;4985964;28;20235;-76
2022/01/15 05:35:09;;;;;;;5.13;4.65;;;;;;;2.88;100.00;62292.97;4984916;28;20204;-76
2022/01/15 05:37:37;;;;;;;8.40;5.90;;;;;;;2.87;100.00;62294.97;4985841;28;20203;-77
2022/01/15 05:40:04;;;;;;;5.70;5.03;;;;;;;2.90;100.00;62297.53;4985418;28;20231;-76
2022/01/15 05:42:33;;;;;;;7.38;5.28;;;;;;;2.84;100.00;62288.84;4967760;29;20261;-77
2022/01/15 05:45:00;;;;;;;5.63;5.07;;;;;;;2.84;100.00;62286.34;4985552;28;20211;-77
2022/01/15 05:47:26;;;;;;;7.45;4.95;;;;;;;2.81;100.00;62288.28;4986725;28;20222;-77
2022/01/15 05:49:53;;;;;;;6.03;5.18;;;;;;;2.82;100.00;62284.28;4985663;28;20200;-77
2022/01/15 05:52:20;;;;;;;8.30;6.10;;;;;;;2.75;100.00;62280.13;4984252;28;20488;-78
2022/01/15 05:54:47;;;;;;;7.95;5.10;;;;;;;2.77;100.00;62279.16;4978740;28;20251;-77
2022/01/15 05:57:14;;;;;;;9.15;5.57;;;;;;;2.76;100.00;62286.16;4985291;28;20220;-77
2022/01/15 05:59:57;;;;;;;9.18;5.70;;;;;;;2.77;100.00;62284.69;4988919;28;20200;-78
2022/01/15 06:02:24;;;;;;;17.27;7.68;;;;;;;2.75;100.00;62280.13;4981636;28;20251;-78
2022/01/15 06:04:51;;;;;;;6.95;5.18;;;;;;;2.71;100.00;62276.00;4986812;28;20241;-77
2022/01/15 06:07:18;;;;;;;6.90;5.43;;;;;;;2.73;100.00;62277.53;4990844;28;20223;-77
2022/01/15 06:09:45;;;;;;;8.07;6.18;;;;;;;2.85;100.00;62289.88;4984879;28;20395;-78
2022/01/15 06:12:12;;;;;;;5.97;5.38;;;;;;;2.88;100.00;62295.47;4983916;28;20232;-77
2022/01/15 06:14:39;;;;;;;11.30;6.55;;;;;;;2.83;100.00;62288.34;4984541;28;20212;-76
2022/01/15 06:17:08;;;;;;;7.55;5.38;;;;;;;2.89;100.00;62292.00;4985904;28;20216;-76
2022/01/15 06:19:35;;;;;;;10.68;5.93;;;;;;;2.85;100.00;62287.88;4984325;28;20200;-76
2022/01/15 06:22:02;;;;;;;6.47;5.10;;;;;;;2.82;100.00;62287.31;4983412;28;20224;-77
2022/01/15 06:24:29;;;;;;;7.30;5.53;;;;;;;2.88;100.00;62293.47;4986019;28;20200;-78
2022/01/15 06:26:56;;;;;;;7.70;5.75;;;;;;;2.87;100.00;62289.41;4985451;28;20259;-77
2022/01/15 06:29:23;;;;;;;6.47;5.30;;;;;;;2.85;100.00;62290.41;4984444;28;20253;-77
2022/01/15 06:31:50;;;;;;;11.52;6.65;;;;;;;2.79;100.00;62288.75;4985655;28;20345;-78
2022/01/15 06:34:18;;;;;;;14.00;7.07;;;;;;;2.71;100.00;62276.00;4986947;28;20213;-77
2022/01/15 06:36:45;;;;;;;6.80;5.45;;;;;;;2.76;100.00;62283.16;4989360;28;20555;-77
2022/01/15 06:39:12;;;;;;;8.60;6.07;;;;;;;2.76;100.00;62283.66;4991926;28;20512;-77
2022/01/15 06:41:39;;;;;;;9.88;6.90;;;;;;;2.72;100.00;62279.03;4987284;28;20544;-77
2022/01/15 06:44:06;;;;;;;6.47;4.68;;;;;;;2.74;100.00;62278.59;4984754;28;20270;-77
2022/01/15 06:46:32;;;;;;;8.98;6.25;;;;;;;2.85;100.00;62289.88;4984772;28;20227;-78
2022/01/15 06:48:59;;;;;;;7.93;6.40;;;;;;;2.79;100.00;62286.75;4985718;28;20196;-77
2022/01/15 06:51:28;;;;;;;6.80;6.10;;;;;;;2.75;100.00;62279.59;4983765;28;20239;-76
2022/01/15 06:53:55;;;;;;;7.75;5.38;;;;;;;2.80;100.00;62284.75;4983782;28;20230;-77
2022/01/15 06:56:21;;;;;;;6.47;5.25;;;;;;;2.78;100.00;62282.69;4979269;28;20272;-77
2022/01/15 06:58:48;;;;;;;10.35;5.82;;;;;;;2.76;100.00;62283.66;4983763;28;20272;-76
2022/01/15 07:01:15;;;;;;;9.52;6.95;;;;;;;2.80;100.00;62285.25;4983233;28;20275;-77
2022/01/15 07:03:42;;;;;;;9.77;7.30;;;;;;;2.87;100.00;62294.44;4984325;28;20211;-77
2022/01/15 07:06:09;;;;;;;13.95;7.05;;;;;;;2.91;100.00;62296.03;4985454;28;20226;-77
2022/01/15 07:08:38;;;;;;;9.07;6.38;;;;;;;2.87;100.00;62292.44;4985861;28;20196;-77
2022/01/15 07:11:04;;;;;;;12.18;6.43;;;;;;;2.87;100.00;62291.94;4985084;28;20230;-77
2022/01/15 07:13:33;;;;;;;6.55;5.47;;;;;;;2.87;100.00;62292.44;4986742;28;20282;-78
2022/01/15 07:16:03;;;;;;;8.15;5.88;;;;;;;3.01;100.00;62308.84;4987919;28;20228;-77
2022/01/15 07:18:30;;;;;;;8.82;6.65;;;;;;;3.14;100.00;62319.69;4986395;28;20204;-78
2022/01/15 07:20:57;;;;;;;11.00;5.68;;;;;;;3.33;99.88;62339.22;4984627;28;20449;-77
2022/01/15 07:23:24;;;;;;;7.50;5.28;;;;;;;3.23;98.98;62334.47;4972815;28;20557;-78
2022/01/15 07:25:53;;;;;;;5.80;4.72;;;;;;;3.18;99.39;62324.31;4991272;28;20369;-78
2022/01/15 07:28:20;;;;;;;8.93;6.35;;;;;;;3.24;99.45;62333.00;4991245;28;20208;-78
2022/01/15 07:31:12;;;;;;;10.20;5.25;;;;;;;3.24;99.18;62332.47;4992884;28;20250;-78
2022/01/15 07:33:39;;;;;;;10.05;6.60;;;;;;;3.21;99.90;62326.88;4994678;28;20243;-78
2022/01/15 07:36:06;;;;;;;7.85;5.30;;;;;;;3.18;100.00;62323.78;4983074;28;20236;-78
2022/01/15 07:38:33;;;;;;;8.80;6.07;;;;;;;3.02;100.00;62307.84;4973474;28;20208;-78
2022/01/15 07:41:01;;;;;;;14.63;6.68;;;;;;;3.04;100.00;62314.94;4980650;28;20228;-77
2022/01/15 07:43:30;;;;;;;8.65;5.63;;;;;;;3.11;100.00;62319.63;4991386;28;20456;-77
2022/01/15 07:45:57;;;;;;;11.15;7.30;;;;;;;3.01;100.00;62306.31;4986916;28;20228;-78
2022/01/15 07:48:24;;;;;;;8.65;7.65;;;;;;;2.91;100.00;62296.56;4988657;28;20215;-77
2022/01/15 07:50:51;;;;;;;9.60;6.38;;;;;;;3.08;100.00;62311.53;4985987;28;20230;-77
2022/01/15 07:53:18;;;;;;;12.80;8.45;;;;;;;2.97;100.00;62302.22;4984637;28;20292;-78
2022/01/15 07:55:44;;;;;;;10.82;7.40;;;;;;;2.86;100.00;62291.44;4979571;28;20397;-77
2022/01/15 07:58:13;;;;;;;12.65;7.22;;;;;;;2.90;100.00;62300.06;4986609;28;20503;-78
2022/01/15 08:00:41;;;;;;;10.43;7.22;;;;;;;2.96;100.00;62303.69;4984062;28;20231;-78
2022/01/15 08:03:09;;;;;;;12.85;7.57;;;;;;;2.91;100.00;62296.56;4971414;28;20217;-78
2022/01/15 08:05:36;;;;;;;10.95;8.20;;;;;;;2.93;100.00;62298.63;4986606;28;20246;-77
2022/01/15 08:08:03;;;;;;;13.43;8.32;;;;;;;2.95;100.00;62305.19;4999407;28;20203;-77
2022/01/15 08:10:30;;;;;;;9.45;6.65;;;;;;;2.98;100.00;62308.28;4989339;28;20265;-78
2022/01/15 08:12:57;;;;;;;10.40;7.40;;;;;;;3.07;100.00;62312.50;4980937;28;20231;-77
2022/01/15 08:15:26;;;;;;;14.63;9.02;;;;;;;3.15;100.00;62320.72;4991005;28;20216;-78
2022/01/15 08:17:53;;;;;;;9.07;6.18;;;;;;;3.26;100.00;62330.00;4990507;28;20204;-77
2022/01/15 08:20:20;;;;;;;12.10;7.72;;;;;;;3.17;100.00;62330.84;4983221;28;20232;-77
2022/01/15 08:22:47;;;;;;;12.85;8.32;;;;;;;3.27;99.51;62333.56;4980710;28;20497;-77
2022/01/15 08:25:16;;;;;;;12.95;7.93;;;;;;;3.23;100.00;62331.97;4978946;28;20455;-78
2022/01/15 08:27:43;;;;;;;14.18;8.93;;;;;;;3.12;100.00;62317.63;4986977;28;20202;-77
2022/01/15 08:30:10;;;;;;;11.35;7.20;;;;;;;3.05;98.93;62310.44;4984458;28;20235;-77
2022/01/15 08:32:38;;;;;;;14.85;8.00;;;;;;;2.98;99.11;62308.78;4986500;28;20239;-76
2022/01/15 08:35:07;;;;;;;11.85;8.18;;;;;;;3.00;99.07;62305.31;4984983;28;20283;-76
2022/01/15 08:37:34;;;;;;;10.27;7.32;;;;;;;3.01;98.11;62306.31;4992967;28;20203;-76
2022/01/15 08:40:01;;;;;;;13.45;8.07;;;;;;;3.10;98.58;62315.56;4986314;28;20204;-76
2022/01/15 08:42:31;;;;;;;11.55;6.72;;;;;;;2.94;99.23;62299.66;4987802;28;20200;-77
2022/01/15 08:44:58;;;;;;;12.88;7.70;;;;;;;2.92;99.15;62297.59;4987941;28;20568;-77
2022/01/15 08:47:24;;;;;;;10.63;7.78;;;;;;;2.98;97.96;62305.75;4985747;28;20200;-78
2022/01/15 08:49:53;;;;;;;9.73;6.97;;;;;;;2.95;96.99;62297.66;4985844;28;20392;-78
2022/01/15 08:52:20;;;;;;;11.65;7.50;;;;;;;3.04;97.52;62309.41;4989264;28;20242;-78
2022/01/15 08:54:47;;;;;;;10.55;8.30;;;;;;;3.03;98.29;62306.38;4984172;28;20204;-78
2022/01/15 08:57:14;;;;;;;11.40;8.35;;;;;;;3.08;97.17;62319.06;4988112;28;20228;-79
2022/01/15 09:02:33;;;;;;;8.90;7.20;;;;;;;3.09;94.80;62317.56;5030279;23;20241;-79
2022/01/15 09:05:01;;;;;;;9.82;6.82;;;;;;;3.22;94.01;62325.91;4969333;28;20275;-79
2022/01/15 09:07:29;;;;;;;9.50;7.45;;;;;;;3.21;95.00;62329.91;4968970;28;20200;-79
2022/01/15 09:09:56;;;;;;;8.05;5.72;;;;;;;3.15;94.58;62323.75;4968179;28;20213;-78
2022/01/15 09:12:24;;;;;;;14.63;7.35;;;;;;;3.23;94.15;62334.47;4970131;28;20240;-78
2022/01/15 09:14:52;;;;;;;14.05;7.93;;;;;;;3.19;94.50;62324.84;4974201;28;20224;-78
2022/01/15 09:17:19;;;;;;;13.98;8.60;;;;;;;3.22;95.10;62328.44;4972367;29;20228;-78
2022/01/15 09:19:46;;;;;;;9.07;7.40;;;;;;;3.30;94.46;62333.59;4972309;28;20556;-78
2022/01/15 09:22:15;;;;;;;9.52;7.93;;;;;;;3.49;94.54;62353.66;4977165;28;20224;-79
2022/01/15 09:24:44;;;;;;;13.00;8.23;;;;;;;3.47;93.80;62356.13;4978222;29;20219;-78
2022/01/15 09:32:36;;;;;;;14.23;9.25;;;;;;;3.07;94.85;62315.50;4969658;29;20239;-78
2022/01/15 09:35:04;;;;;;;11.98;6.20;;;;;;;2.84;95.27;62291.88;4965626;29;20208;-77
2022/01/15 09:37:33;;;;;;;9.50;6.82;;;;;;;2.89;95.12;62294.00;4966192;29;20288;-77
2022/01/15 09:40:00;;;;;;;9.57;7.32;;;;;;;2.82;95.29;62287.31;4967052;29;20236;-78
2022/01/15 09:42:27;;;;;;;8.50;6.88;;;;;;;2.92;96.08;62302.63;4961475;29;20207;-78
2022/01/15 09:44:55;;;;;;;12.80;7.20;;;;;;;2.87;96.33;62294.97;4967864;29;20517;-79
2022/01/15 09:47:22;;;;;;;9.20;6.50;;;;;;;2.87;96.46;62289.94;4968573;28;20201;-77
2022/01/15 09:49:53;;;;;;;7.47;6.22;;;;;;;2.79;95.94;62286.75;4962803;28;20204;-77
2022/01/15 09:52:21;;;;;;;13.90;7.72;;;;;;;2.86;95.10;62295.94;4966042;29;20243;-79
2022/01/15 09:54:52;;;;;;;10.40;7.05;;;;;;;2.97;94.26;62302.22;4971893;28;20204;-79
2022/01/15 09:57:21;;;;;;;8.45;6.68;;;;;;;3.07;92.45;62315.00;4974277;28;20541;-78
2022/01/15 09:59:48;;;;;;;9.13;6.25;;;;;;;3.11;91.53;62324.66;4949665;29;20206;-78
2022/01/15 10:02:16;;;;;;;12.38;7.22;;;;;;;3.39;90.67;62348.41;4952708;29;20233;-79
2022/01/15 10:04:43;;;;;;;11.68;7.28;;;;;;;3.61;90.36;62370.53;4958602;29;20203;-78
2022/01/15 10:07:14;;;;;;;9.30;6.88;;;;;;;3.90;88.57;62399.84;4971429;28;20224;-78
2022/01/15 10:09:43;;;;;;;12.25;7.18;;;;;;;4.18;86.30;62426.13;4970901;29;20245;-78
2022/01/15 10:12:13;;;;;;;8.18;6.38;;;;;;;4.36;84.06;62452.72;4963957;28;20282;-78
2022/01/15 10:14:42;;;;;;;8.23;6.32;;;;;;;4.29;80.79;62437.97;4955786;28;20252;-77
2022/01/15 10:17:24;;;;;;;8.07;6.28;;;;;;;4.11;81.92;62421.94;4968828;28;20221;-78
2022/01/15 10:19:52;;;;;;;8.68;6.28;;;;;;;4.08;82.01;62413.81;4964199;29;20203;-77
2022/01/15 10:22:23;;;;;;;9.15;6.65;;;;;;;4.05;83.35;62413.28;4962860;29;20238;-81
2022/01/15 10:24:56;;;;;;;11.63;6.70;;;;;;;3.84;83.20;62396.69;4964502;29;20261;-78
2022/01/15 10:27:28;;;;;;;10.30;7.10;;;;;;;3.98;84.20;62408.06;4967304;29;20232;-78
2022/01/15 10:30:01;;;;;;;12.85;7.85;;;;;;;3.65;85.60;62374.63;4965688;29;20236;-80
2022/01/15 10:32:31;;;;;;;7.38;5.53;;;;;;;3.66;84.50;62370.63;4967942;29;20201;-80
2022/01/15 10:34:58;;;;;;;9.32;6.65;;;;;;;3.65;84.02;62374.63;4964299;29;20427;-78
2022/01/15 10:37:33;;;;;;;10.48;6.72;;;;;;;3.73;84.72;62382.34;4966827;29;20204;-77
2022/01/15 10:40:03;;;;;;;9.75;6.43;;;;;;;3.74;84.23;62381.38;4969722;28;20548;-79
2022/01/15 10:42:32;;;;;;;10.80;5.80;;;;;;;3.90;83.83;62399.84;4970604;28;20201;-78
2022/01/15 10:45:00;;;;;;;10.13;5.20;;;;;;;3.61;83.10;62372.53;4971400;28;20276;-78
2022/01/15 10:47:28;;;;;;;7.68;6.55;;;;;;;3.39;85.97;62345.91;4966969;28;20508;-78
2022/01/15 10:50:03;;;;;;;6.90;3.63;;;;;;;3.54;84.34;62363.84;4949916;29;20198;-78
2022/01/15 10:52:30;;;;;;;11.90;6.13;;;;;;;3.62;85.29;62371.03;4948622;29;20258;-79
2022/01/15 10:55:01;;;;;;;11.52;7.30;;;;;;;3.32;87.25;62343.75;4949507;29;20267;-78
2022/01/15 10:57:32;;;;;;;9.40;6.65;;;;;;;3.52;86.52;62359.25;4964588;28;20259;-79
2022/01/15 11:00:04;;;;;;;7.80;5.55;;;;;;;3.82;85.18;62389.09;4968222;28;20413;-79
2022/01/15 11:02:31;;;;;;;7.45;5.30;;;;;;;3.61;85.34;62373.03;4973794;28;20488;-78
2022/01/15 11:04:58;;;;;;;9.50;6.72;;;;;;;3.60;86.67;62366.97;4964076;28;20229;-78
2022/01/15 11:07:25;;;;;;;12.93;7.15;;;;;;;3.90;85.62;62397.81;4970762;28;20212;-78
2022/01/15 11:09:53;;;;;;;11.55;6.90;;;;;;;4.07;83.14;62415.31;4967078;29;20201;-79
2022/01/15 11:12:26;;;;;;;12.88;7.22;;;;;;;4.15;81.72;62428.59;4966580;29;20560;-79
2022/01/15 11:14:54;;;;;;;20.17;6.30;;;;;;;4.45;80.44;62454.41;4969190;28;20235;-79
2022/01/15 11:17:21;;;;;;;12.20;6.97;;;;;;;4.58;78.93;62470.31;4972122;28;20212;-77
2022/01/15 11:19:53;;;;;;;14.07;6.75;;;;;;;4.80;78.27;62489.41;4974528;28;20224;-78
2022/01/15 11:22:22;;;;;;;7.32;6.63;;;;;;;4.97;75.16;62507.41;4975561;29;20228;-78
2022/01/15 11:24:50;;;;;;;9.13;6.55;;;;;;;4.72;75.54;62484.22;4976164;29;20196;-77
2022/01/15 11:27:18;;;;;;;9.05;6.80;;;;;;;4.73;76.32;62480.72;4972955;29;20232;-79
2022/01/15 11:29:47;;;;;;;9.57;6.25;;;;;;;4.85;75.71;62495.06;4972178;29;20200;-79
2022/01/15 11:32:26;;;;;;;9.20;6.68;;;;;;;4.68;75.15;62475.56;4973614;28;20421;-81
2022/01/15 11:35:06;;;;;;;8.70;5.60;;;;;;;4.28;78.58;62436.41;4973510;29;20284;-79
2022/01/15 11:37:42;;;;;;;8.93;5.68;;;;;;;4.78;77.09;62492.41;4972076;29;20205;-78
2022/01/15 11:40:34;;;;;;;8.73;5.90;;;;;;;4.90;74.72;62502.25;4972404;29;20207;-77
2022/01/15 11:43:35;;;;;;;9.15;6.88;;;;;;;4.85;75.93;62497.09;4972351;29;20193;-79
2022/01/15 11:46:05;;;;;;;12.32;7.25;;;;;;;4.65;77.60;62474.50;4968932;29;20223;-78
2022/01/15 11:48:35;;;;;;;11.07;7.20;;;;;;;4.81;77.68;62490.97;4971000;29;20201;-79
2022/01/15 11:51:28;;;;;;;9.32;7.68;;;;;;;5.07;74.80;62519.75;4975159;28;20217;-79
2022/01/15 11:53:58;;;;;;;9.15;7.35;;;;;;;5.25;74.78;62538.25;4976042;28;20225;-78
2022/01/15 11:56:27;;;;;;;8.25;6.47;;;;;;;5.44;73.03;62560.88;4973175;28;20268;-79
2022/01/15 11:58:59;;;;;;;8.73;6.82;;;;;;;5.29;72.69;62545.44;4974570;29;20196;-78
2022/01/15 12:01:43;;;;;;;14.02;7.10;;;;;;;5.34;72.61;62548.06;4967981;28;20232;-78
2022/01/15 12:04:30;;;;;;;9.60;6.65;;;;;;;5.31;73.01;62539.41;4968572;29;20209;-78
2022/01/15 12:07:23;;;;;;;10.70;7.68;;;;;;;5.33;73.13;62547.03;4967729;28;20216;-78